Time;durP1;ratioP1;P1;durP2;ratioP2;P2;SDS_P1;SDS_P2;PMS_P1;PMS_P2;Temp;Humidity;BMP_temperature;BMP_pressure;BME280_temperature;BME280_humidity;BME280_pressure;Samples;Min_cycle;Max_cycle;Signal;HPM_P1;HPM_P2
2022/10/25 00:01:26;;;;;;;6.37;2.03;;;13.00;99.90;;;;;;5110459;28;20982;-72
2022/10/25 00:03:53;;;;;;;8.53;2.07;;;12.90;99.90;;;;;;5111561;28;20445;-72
2022/10/25 00:06:21;;;;;;;6.00;2.00;;;12.90;99.90;;;;;;5103814;28;20884;-73
2022/10/25 00:08:48;;;;;;;10.40;2.40;;;12.80;99.90;;;;;;5091295;28;20517;-72
2022/10/25 00:11:19;;;;;;;6.67;2.70;;;12.60;99.90;;;;;;5101610;28;20442;-73
2022/10/25 00:13:47;;;;;;;5.93;2.80;;;12.40;99.90;;;;;;5110763;28;20478;-73
2022/10/25 00:16:15;;;;;;;8.13;3.47;;;12.30;99.90;;;;;;5091125;28;20456;-73
2022/10/25 00:18:41;;;;;;;19.47;3.80;;;12.10;99.90;;;;;;5091242;28;20446;-72
2022/10/25 00:21:08;;;;;;;9.03;3.43;;;12.00;99.90;;;;;;5090814;28;20450;-73
2022/10/25 00:23:36;;;;;;;10.93;3.67;;;11.90;99.90;;;;;;5090816;28;20481;-72
2022/10/25 00:26:04;;;;;;;10.70;3.80;;;11.80;99.90;;;;;;5090747;28;20452;-72
2022/10/25 00:28:31;;;;;;;14.03;4.40;;;11.80;99.90;;;;;;5090834;28;20510;-73
2022/10/25 00:31:02;;;;;;;4.20;3.20;;;11.80;99.90;;;;;;5090816;28;20818;-72
2022/10/25 00:33:30;;;;;;;10.63;3.80;;;11.70;99.90;;;;;;5091099;28;21013;-73
2022/10/25 00:36:03;;;;;;;17.57;3.87;;;11.70;99.90;;;;;;5090673;28;20515;-73
2022/10/25 00:38:30;;;;;;;15.57;3.70;;;11.70;99.90;;;;;;5090940;28;20948;-72
2022/10/25 00:40:58;;;;;;;10.90;3.63;;;11.60;99.90;;;;;;5090754;28;20453;-72
2022/10/25 00:43:36;;;;;;;7.83;3.60;;;11.60;99.90;;;;;;5090944;28;20474;-72
2022/10/25 00:46:07;;;;;;;12.80;4.07;;;11.60;99.90;;;;;;5099582;28;20441;-73
2022/10/25 00:48:34;;;;;;;15.23;3.90;;;11.50;99.90;;;;;;5091215;28;20831;-72
2022/10/25 00:51:02;;;;;;;9.80;3.90;;;11.50;99.90;;;;;;5090644;28;20939;-72
2022/10/25 00:53:34;;;;;;;12.43;3.63;;;11.50;99.90;;;;;;5095557;28;20888;-73
2022/10/25 00:56:08;;;;;;;13.10;3.60;;;11.50;99.90;;;;;;5105090;28;20859;-72
2022/10/25 00:58:37;;;;;;;8.20;4.03;;;11.50;99.90;;;;;;5091093;28;20877;-72
2022/10/25 01:01:07;;;;;;;8.73;3.60;;;11.40;99.90;;;;;;5090571;28;20885;-73
2022/10/25 01:03:36;;;;;;;12.73;4.13;;;11.40;99.90;;;;;;5091393;28;20487;-73
2022/10/25 01:06:05;;;;;;;9.87;4.30;;;11.40;99.90;;;;;;5100199;28;20495;-72
2022/10/25 01:08:33;;;;;;;9.47;4.00;;;11.40;99.90;;;;;;5105574;28;20518;-72
2022/10/25 01:11:00;;;;;;;14.23;3.67;;;11.40;99.90;;;;;;5096611;28;20457;-72
2022/10/25 01:13:28;;;;;;;11.77;4.33;;;11.30;99.90;;;;;;5094274;28;20470;-73
2022/10/25 01:16:03;;;;;;;10.23;4.13;;;11.30;99.90;;;;;;5105590;28;20479;-72
2022/10/25 01:18:42;;;;;;;10.70;4.30;;;11.30;99.90;;;;;;5094107;28;20506;-72
2022/10/25 01:21:35;;;;;;;7.97;4.30;;;11.40;99.90;;;;;;5100586;28;20499;-72
2022/10/25 01:24:27;;;;;;;13.47;4.47;;;11.30;99.90;;;;;;5113574;28;20505;-72
2022/10/25 01:27:30;;;;;;;10.23;4.50;;;11.20;99.90;;;;;;5080829;28;20455;-72
2022/10/25 01:30:08;;;;;;;12.20;3.30;;;11.20;99.90;;;;;;5074882;28;20964;-72
2022/10/25 01:32:55;;;;;;;9.33;3.57;;;11.20;99.90;;;;;;5100190;28;20478;-73
2022/10/25 01:35:27;;;;;;;14.70;3.50;;;11.10;99.90;;;;;;5114198;28;20538;-73
2022/10/25 01:38:13;;;;;;;10.03;3.33;;;11.10;99.90;;;;;;5095063;28;20954;-72
2022/10/25 01:40:48;;;;;;;15.93;3.27;;;11.10;99.90;;;;;;5093778;28;20479;-73
2022/10/25 01:43:27;;;;;;;10.40;3.30;;;11.10;99.90;;;;;;5112075;28;21147;-72
2022/10/25 01:46:01;;;;;;;9.17;3.23;;;11.10;99.90;;;;;;5118327;27;20475;-72
2022/10/25 01:48:35;;;;;;;13.20;3.20;;;11.10;99.90;;;;;;5114372;28;20450;-72
2022/10/25 01:51:09;;;;;;;9.73;3.13;;;11.10;99.90;;;;;;5113947;27;20443;-72
2022/10/25 01:53:47;;;;;;;10.87;3.23;;;11.10;99.90;;;;;;5113932;28;20877;-72
2022/10/25 01:56:21;;;;;;;7.23;3.50;;;11.00;99.90;;;;;;5106801;28;20479;-73
2022/10/25 01:59:12;;;;;;;9.73;3.77;;;11.00;99.90;;;;;;5093650;28;20447;-73
2022/10/25 02:01:50;;;;;;;15.53;3.50;;;11.00;99.90;;;;;;5096558;28;21010;-72
2022/10/25 02:04:27;;;;;;;7.50;2.70;;;10.90;99.90;;;;;;5111984;28;20452;-72
2022/10/25 02:07:00;;;;;;;11.93;3.10;;;10.90;99.90;;;;;;5105052;28;20450;-72
2022/10/25 02:09:33;;;;;;;3.13;2.57;;;10.90;99.90;;;;;;5113934;28;20444;-72
2022/10/25 02:12:03;;;;;;;7.10;2.80;;;10.80;99.90;;;;;;5103699;28;20482;-72
2022/10/25 02:14:35;;;;;;;16.17;3.27;;;10.80;99.90;;;;;;5099985;28;20454;-72
2022/10/25 02:17:05;;;;;;;10.93;3.50;;;10.90;99.90;;;;;;5112843;28;20436;-73
2022/10/25 02:19:37;;;;;;;6.83;2.60;;;10.90;99.90;;;;;;5113629;28;20445;-72
2022/10/25 02:22:09;;;;;;;15.77;2.97;;;11.00;99.90;;;;;;5112672;28;20466;-72
2022/10/25 02:24:38;;;;;;;9.57;2.80;;;11.10;99.90;;;;;;5103625;28;20859;-73
2022/10/25 02:27:06;;;;;;;8.03;2.47;;;11.10;99.90;;;;;;5112931;28;20487;-72
2022/10/25 02:29:35;;;;;;;13.23;2.67;;;11.20;99.90;;;;;;5110985;28;20459;-72
2022/10/25 02:32:03;;;;;;;11.67;3.00;;;11.20;99.90;;;;;;5092411;28;20477;-73
2022/10/25 02:34:30;;;;;;;7.93;2.90;;;11.30;99.90;;;;;;5103216;28;20496;-72
2022/10/25 02:36:59;;;;;;;9.73;2.63;;;11.30;99.90;;;;;;5113202;28;20482;-72
2022/10/25 02:39:28;;;;;;;7.80;3.00;;;11.30;99.90;;;;;;5113073;28;20472;-73
2022/10/25 02:41:54;;;;;;;6.80;2.60;;;11.30;99.90;;;;;;5113067;28;20519;-72
2022/10/25 02:44:21;;;;;;;10.93;2.47;;;11.30;99.90;;;;;;5105379;28;20439;-73
2022/10/25 02:46:48;;;;;;;9.20;2.80;;;11.30;99.90;;;;;;5093792;28;20446;-72
2022/10/25 02:49:14;;;;;;;4.20;2.80;;;11.30;99.90;;;;;;5092693;28;20452;-72
2022/10/25 02:51:41;;;;;;;9.13;3.70;;;11.30;99.90;;;;;;5092312;28;20459;-72
2022/10/25 02:54:09;;;;;;;8.07;2.60;;;11.20;99.90;;;;;;5099455;28;20449;-72
2022/10/25 02:56:36;;;;;;;12.70;2.63;;;11.20;99.90;;;;;;5092954;27;20897;-72
2022/10/25 02:59:02;;;;;;;7.90;2.43;;;11.20;99.90;;;;;;5107169;28;20460;-72
2022/10/25 03:01:29;;;;;;;7.67;2.30;;;11.10;99.90;;;;;;5112551;28;20883;-72
2022/10/25 03:03:56;;;;;;;6.57;2.77;;;11.10;99.90;;;;;;5111187;28;20451;-73
2022/10/25 03:06:23;;;;;;;13.57;3.40;;;11.00;99.90;;;;;;5091915;28;20447;-72
2022/10/25 03:08:49;;;;;;;9.00;3.00;;;11.00;99.90;;;;;;5091933;28;20470;-73
2022/10/25 03:11:17;;;;;;;15.00;2.63;;;11.00;99.90;;;;;;5092030;28;20493;-73
2022/10/25 03:13:44;;;;;;;5.17;2.43;;;10.90;99.90;;;;;;5092223;28;20443;-73
2022/10/25 03:16:11;;;;;;;15.53;3.57;;;10.90;99.90;;;;;;5091784;28;20476;-72
2022/10/25 03:18:38;;;;;;;5.40;2.60;;;10.80;99.90;;;;;;5092239;28;20447;-72
2022/10/25 03:21:05;;;;;;;10.53;2.77;;;10.80;99.90;;;;;;5091673;28;20500;-73
2022/10/25 03:23:32;;;;;;;14.43;3.03;;;10.80;99.90;;;;;;5091558;28;20894;-72
2022/10/25 03:26:00;;;;;;;7.40;3.40;;;10.70;99.90;;;;;;5092003;28;20448;-73
2022/10/25 03:28:30;;;;;;;9.00;3.30;;;10.70;99.90;;;;;;5091936;28;20823;-72
2022/10/25 03:30:58;;;;;;;6.77;3.17;;;10.70;99.90;;;;;;5091443;28;20458;-72
2022/10/25 03:33:25;;;;;;;18.07;4.33;;;10.70;99.90;;;;;;5090899;28;20491;-72
2022/10/25 03:35:53;;;;;;;9.50;3.67;;;10.70;99.90;;;;;;5091085;28;20476;-72
2022/10/25 03:38:20;;;;;;;5.40;3.00;;;10.70;99.90;;;;;;5091921;28;20455;-73
2022/10/25 03:40:46;;;;;;;5.60;3.33;;;10.60;99.90;;;;;;5091687;28;20480;-72
2022/10/25 03:43:13;;;;;;;7.30;3.20;;;10.60;99.90;;;;;;5091580;28;20465;-73
2022/10/25 03:45:41;;;;;;;4.87;2.87;;;10.50;99.90;;;;;;5106903;27;20459;-72
2022/10/25 03:48:08;;;;;;;4.30;3.27;;;10.40;99.90;;;;;;5132484;27;20441;-73
2022/10/25 03:50:35;;;;;;;7.17;3.40;;;10.40;99.90;;;;;;5132107;27;21000;-72
2022/10/25 03:53:03;;;;;;;4.50;2.87;;;10.30;99.90;;;;;;5117404;27;20506;-72
2022/10/25 03:55:29;;;;;;;13.07;3.27;;;10.30;99.90;;;;;;5102559;28;20484;-73
2022/10/25 03:57:56;;;;;;;12.00;3.53;;;10.30;99.90;;;;;;5111885;28;20969;-72
2022/10/25 04:00:23;;;;;;;8.90;3.57;;;10.30;99.90;;;;;;5103068;28;20864;-72
2022/10/25 04:02:55;;;;;;;6.77;3.67;;;10.20;99.90;;;;;;5091144;28;20472;-72
2022/10/25 04:05:21;;;;;;;9.63;3.30;;;10.20;99.90;;;;;;5106707;28;20455;-72
2022/10/25 04:07:48;;;;;;;6.67;3.30;;;10.10;99.90;;;;;;5111826;28;20451;-72
2022/10/25 04:10:15;;;;;;;8.53;3.50;;;10.10;99.90;;;;;;5109393;28;20948;-73
2022/10/25 04:12:42;;;;;;;21.27;4.47;;;10.10;99.90;;;;;;5091180;28;21040;-72
2022/10/25 04:15:10;;;;;;;10.23;3.93;;;10.10;99.90;;;;;;5096117;28;20862;-73
2022/10/25 04:17:36;;;;;;;13.73;3.90;;;10.10;99.90;;;;;;5107201;28;20487;-72
2022/10/25 04:20:05;;;;;;;13.27;3.63;;;10.10;99.90;;;;;;5093215;28;20500;-72
2022/10/25 04:22:32;;;;;;;7.53;4.20;;;10.00;99.90;;;;;;5103160;28;20481;-72
2022/10/25 04:24:59;;;;;;;5.27;3.50;;;10.00;99.90;;;;;;5103919;28;20447;-72
2022/10/25 04:27:25;;;;;;;7.87;4.07;;;10.00;99.90;;;;;;5109314;28;20453;-72
2022/10/25 04:29:52;;;;;;;10.80;4.40;;;10.00;99.90;;;;;;5111338;28;20500;-72
2022/10/25 04:32:19;;;;;;;10.67;4.47;;;9.90;99.90;;;;;;5097252;28;20528;-72
2022/10/25 04:34:45;;;;;;;10.07;4.57;;;9.90;99.90;;;;;;5101115;28;20457;-72
2022/10/25 04:37:13;;;;;;;14.63;4.73;;;9.90;99.90;;;;;;5111095;28;20999;-72
2022/10/25 04:39:40;;;;;;;9.27;4.60;;;9.90;99.90;;;;;;5113722;28;20457;-72
2022/10/25 04:42:07;;;;;;;7.63;3.97;;;9.80;99.90;;;;;;5115206;28;20474;-72
2022/10/25 04:44:33;;;;;;;17.87;5.10;;;9.80;99.90;;;;;;5108489;28;20450;-72
2022/10/25 04:47:01;;;;;;;10.30;4.50;;;9.80;99.90;;;;;;5130051;27;20464;-72
2022/10/25 04:49:28;;;;;;;13.43;6.37;;;9.80;99.90;;;;;;5115320;27;20451;-72
2022/10/25 04:51:54;;;;;;;12.47;5.87;;;9.80;99.90;;;;;;5114879;28;20518;-72
2022/10/25 04:54:22;;;;;;;11.97;5.40;;;9.80;99.90;;;;;;5114327;28;20458;-72
2022/10/25 04:56:49;;;;;;;12.10;5.10;;;9.80;99.90;;;;;;5114471;28;20523;-72
2022/10/25 04:59:16;;;;;;;17.47;5.17;;;9.80;99.90;;;;;;5101515;28;20446;-72
2022/10/25 05:01:42;;;;;;;11.43;4.83;;;9.80;99.90;;;;;;5094550;28;20463;-72
2022/10/25 05:04:09;;;;;;;11.50;5.50;;;9.80;99.90;;;;;;5098529;28;20483;-72
2022/10/25 05:06:36;;;;;;;15.90;6.30;;;9.90;99.90;;;;;;5098622;28;20454;-72
2022/10/25 05:09:04;;;;;;;9.80;5.50;;;10.00;99.90;;;;;;5096163;28;20474;-73
2022/10/25 05:11:32;;;;;;;10.60;5.00;;;10.10;99.90;;;;;;5106747;28;20450;-73
2022/10/25 05:13:59;;;;;;;11.17;5.70;;;10.00;99.90;;;;;;5112480;28;20461;-73
2022/10/25 05:16:25;;;;;;;11.60;5.30;;;10.00;99.90;;;;;;5105245;28;20478;-73
2022/10/25 05:18:54;;;;;;;9.20;5.23;;;10.00;99.90;;;;;;5102934;28;20455;-73
2022/10/25 05:21:24;;;;;;;10.30;4.90;;;10.00;99.90;;;;;;5105434;28;20480;-73
2022/10/25 05:23:50;;;;;;;11.30;5.00;;;9.90;99.90;;;;;;5114158;28;20497;-73
2022/10/25 05:26:20;;;;;;;15.00;5.57;;;9.90;99.90;;;;;;5096709;28;20443;-73
2022/10/25 05:28:49;;;;;;;14.87;5.87;;;9.90;99.90;;;;;;5108707;28;20447;-73
2022/10/25 05:31:18;;;;;;;13.73;5.70;;;9.80;99.90;;;;;;5099589;28;20466;-73
2022/10/25 05:33:45;;;;;;;17.97;6.23;;;9.80;99.90;;;;;;5100910;28;20456;-73
2022/10/25 05:36:13;;;;;;;10.77;6.00;;;9.80;99.90;;;;;;5095509;28;20481;-74
2022/10/25 05:38:40;;;;;;;11.93;6.20;;;9.70;99.90;;;;;;5113919;28;20515;-73
2022/10/25 05:41:07;;;;;;;16.27;6.20;;;9.70;99.90;;;;;;5113924;28;20442;-73
2022/10/25 05:43:34;;;;;;;10.83;6.77;;;9.70;99.90;;;;;;5098325;28;20473;-73
2022/10/25 05:46:05;;;;;;;14.10;7.00;;;9.70;99.90;;;;;;5098199;28;20443;-73
2022/10/25 05:48:33;;;;;;;9.73;6.17;;;9.70;99.90;;;;;;5108376;28;20455;-73
2022/10/25 05:51:13;;;;;;;13.83;7.17;;;9.70;99.90;;;;;;5100100;28;20450;-73
2022/10/25 05:53:44;;;;;;;14.57;6.63;;;9.70;99.90;;;;;;5113939;28;20470;-72
2022/10/25 05:56:11;;;;;;;12.77;8.10;;;9.70;99.90;;;;;;5111793;28;20991;-73
2022/10/25 05:58:38;;;;;;;20.03;7.20;;;9.70;99.90;;;;;;5112784;28;20450;-72
2022/10/25 06:01:06;;;;;;;9.67;7.33;;;9.70;99.90;;;;;;5103035;28;20447;-74
2022/10/25 06:03:33;;;;;;;8.80;6.60;;;9.70;99.90;;;;;;5095826;28;20886;-74
2022/10/25 06:06:00;;;;;;;13.50;6.63;;;9.80;99.90;;;;;;5111704;28;20454;-74
2022/10/25 06:08:27;;;;;;;19.80;7.60;;;9.80;99.90;;;;;;5106230;28;20525;-75
2022/10/25 06:10:54;;;;;;;13.80;6.70;;;9.90;99.90;;;;;;5105624;28;20528;-74
2022/10/25 06:13:21;;;;;;;13.07;8.60;;;9.90;99.90;;;;;;5094362;28;20525;-75
2022/10/25 06:15:47;;;;;;;13.40;7.07;;;9.90;99.90;;;;;;5098706;28;20453;-74
2022/10/25 06:18:15;;;;;;;15.40;8.07;;;10.00;99.90;;;;;;5095559;28;20483;-75
2022/10/25 06:20:42;;;;;;;17.07;7.50;;;10.00;99.90;;;;;;5106087;28;20472;-76
2022/10/25 06:23:09;;;;;;;17.33;8.37;;;10.00;99.90;;;;;;5112420;28;20476;-75
2022/10/25 06:25:35;;;;;;;19.80;8.53;;;10.10;99.90;;;;;;5106746;28;20957;-75
2022/10/25 06:28:02;;;;;;;18.60;7.80;;;10.10;99.90;;;;;;5102772;28;21179;-75
2022/10/25 06:30:28;;;;;;;12.10;7.80;;;10.20;99.90;;;;;;5108493;28;20490;-74
2022/10/25 06:32:55;;;;;;;13.40;8.03;;;10.20;99.90;;;;;;5091304;28;20497;-75
2022/10/25 06:35:23;;;;;;;15.93;7.80;;;10.20;99.90;;;;;;5097373;28;20531;-74
2022/10/25 06:37:50;;;;;;;21.30;7.63;;;10.30;99.90;;;;;;5106825;28;20844;-75
2022/10/25 06:40:17;;;;;;;17.80;7.20;;;10.40;99.90;;;;;;5107333;28;20964;-75
2022/10/25 06:42:43;;;;;;;13.30;7.33;;;10.40;99.90;;;;;;5107182;28;20462;-75
2022/10/25 06:45:10;;;;;;;16.33;6.67;;;10.60;99.90;;;;;;5107412;28;20468;-75
2022/10/25 06:47:37;;;;;;;12.00;7.20;;;10.50;99.90;;;;;;5107941;28;20446;-75
2022/10/25 06:50:04;;;;;;;11.93;6.50;;;10.60;99.90;;;;;;5108230;28;20443;-75
2022/10/25 06:52:32;;;;;;;14.83;7.10;;;10.60;99.90;;;;;;5106505;28;20521;-76
2022/10/25 06:55:00;;;;;;;15.20;6.80;;;10.70;99.90;;;;;;5106916;28;20579;-75
2022/10/25 06:57:27;;;;;;;13.63;7.00;;;10.70;99.90;;;;;;5108509;28;20488;-75
2022/10/25 06:59:54;;;;;;;19.10;8.90;;;10.70;99.90;;;;;;5108855;28;20512;-75
2022/10/25 07:02:20;;;;;;;15.70;7.30;;;10.80;99.90;;;;;;5107501;28;20468;-74
2022/10/25 07:04:47;;;;;;;14.47;8.33;;;10.90;99.90;;;;;;5107400;28;20944;-74
2022/10/25 07:07:14;;;;;;;12.43;7.70;;;10.90;99.90;;;;;;5108446;28;20494;-76
2022/10/25 07:09:42;;;;;;;18.87;8.10;;;11.00;99.90;;;;;;5108835;28;20457;-74
2022/10/25 07:12:09;;;;;;;15.33;8.07;;;11.00;99.90;;;;;;5107970;28;20481;-76
2022/10/25 07:14:36;;;;;;;13.60;9.03;;;11.10;99.90;;;;;;5108952;28;20453;-76
2022/10/25 07:17:02;;;;;;;13.47;9.17;;;11.10;99.90;;;;;;5108477;28;20479;-76
2022/10/25 07:19:29;;;;;;;21.43;10.53;;;11.20;99.90;;;;;;5108466;28;20452;-76
2022/10/25 07:21:55;;;;;;;22.07;11.00;;;11.20;99.90;;;;;;5107857;28;20478;-77
2022/10/25 07:24:22;;;;;;;19.00;11.00;;;11.20;99.90;;;;;;5108592;28;20427;-76
2022/10/25 07:26:50;;;;;;;14.70;10.67;;;11.20;99.90;;;;;;5108402;28;20439;-76
2022/10/25 07:29:17;;;;;;;21.70;13.07;;;11.30;99.90;;;;;;5108361;28;20454;-76
2022/10/25 07:31:44;;;;;;;16.67;10.77;;;11.30;99.90;;;;;;5107221;28;20481;-76
2022/10/25 07:34:13;;;;;;;25.97;11.10;;;11.30;99.90;;;;;;5106746;28;20452;-75
2022/10/25 07:36:39;;;;;;;23.60;11.53;;;11.30;99.90;;;;;;5108357;28;20574;-75
2022/10/25 07:39:06;;;;;;;20.47;11.00;;;11.40;99.90;;;;;;5107641;28;20458;-75
2022/10/25 07:41:33;;;;;;;20.97;11.90;;;11.40;99.90;;;;;;5107597;28;20451;-75
2022/10/25 07:44:01;;;;;;;22.60;11.87;;;11.40;99.90;;;;;;5107782;28;20452;-74
2022/10/25 07:46:28;;;;;;;16.93;11.27;;;11.40;99.90;;;;;;5107188;28;20542;-74
2022/10/25 07:48:54;;;;;;;33.83;13.10;;;11.40;99.90;;;;;;5106783;28;20865;-75
2022/10/25 07:51:21;;;;;;;27.27;13.70;;;11.40;99.90;;;;;;5107459;28;20435;-74
2022/10/25 07:53:48;;;;;;;19.23;14.00;;;11.60;99.90;;;;;;5107440;28;20465;-74
2022/10/25 07:56:18;;;;;;;24.93;12.27;;;12.20;99.90;;;;;;5106493;28;20879;-74
2022/10/25 07:58:44;;;;;;;15.93;11.50;;;12.90;99.90;;;;;;5105580;28;20489;-74
2022/10/25 08:01:18;;;;;;;15.10;10.80;;;13.30;99.90;;;;;;5105675;28;20510;-74
2022/10/25 08:03:44;;;;;;;22.37;10.10;;;13.40;99.90;;;;;;5108451;28;20456;-74
2022/10/25 08:06:11;;;;;;;14.60;8.93;;;13.70;99.90;;;;;;5108113;28;20442;-75
2022/10/25 08:08:38;;;;;;;14.07;8.73;;;13.80;99.90;;;;;;5107826;28;20446;-75
2022/10/25 08:11:06;;;;;;;18.07;9.50;;;13.70;99.90;;;;;;5107335;28;20532;-74
2022/10/25 08:13:34;;;;;;;14.93;9.90;;;13.60;99.90;;;;;;5108211;28;20477;-75
2022/10/25 08:16:01;;;;;;;19.63;10.03;;;13.60;99.90;;;;;;5112018;28;20446;-75
2022/10/25 08:18:29;;;;;;;16.70;9.87;;;13.90;99.90;;;;;;5111811;28;20489;-75
2022/10/25 08:20:55;;;;;;;13.17;8.57;;;14.40;99.90;;;;;;5111572;28;20458;-75
2022/10/25 08:23:24;;;;;;;17.33;9.13;;;14.60;99.90;;;;;;5111847;28;21360;-75
2022/10/25 08:25:51;;;;;;;17.20;9.47;;;14.60;99.90;;;;;;5111910;28;20855;-75
2022/10/25 08:28:17;;;;;;;18.10;7.60;;;14.50;99.90;;;;;;5111964;28;20836;-74
2022/10/25 08:30:44;;;;;;;19.90;8.70;;;14.30;99.90;;;;;;5111726;28;20454;-74
2022/10/25 08:33:11;;;;;;;19.97;9.10;;;14.20;99.90;;;;;;5111883;28;20462;-74
2022/10/25 08:35:40;;;;;;;14.10;8.20;;;14.10;99.90;;;;;;5111716;28;20453;-76
2022/10/25 08:38:06;;;;;;;13.47;7.97;;;14.10;99.90;;;;;;5111368;28;20583;-75
2022/10/25 08:40:42;;;;;;;16.67;8.50;;;14.00;99.90;;;;;;5111321;28;20844;-74
2022/10/25 08:43:23;;;;;;;19.93;8.80;;;14.30;99.90;;;;;;5111904;28;20519;-76
2022/10/25 08:45:55;;;;;;;13.23;7.70;;;15.00;99.90;;;;;;5111771;27;20442;-75
2022/10/25 08:48:28;;;;;;;8.57;6.80;;;15.70;99.90;;;;;;5111159;28;21066;-75
2022/10/25 08:51:00;;;;;;;11.47;7.00;;;16.20;99.90;;;;;;5111416;28;20424;-75
2022/10/25 08:53:32;;;;;;;9.03;5.63;;;16.20;99.90;;;;;;5111642;28;20440;-75
2022/10/25 08:56:00;;;;;;;13.10;6.60;;;16.40;99.90;;;;;;5111612;28;21268;-75
2022/10/25 08:58:32;;;;;;;11.63;5.40;;;16.50;99.90;;;;;;5111489;28;20474;-75
2022/10/25 09:01:04;;;;;;;8.93;5.80;;;16.40;99.90;;;;;;5110584;28;20963;-75
2022/10/25 09:03:31;;;;;;;7.87;4.87;;;16.60;99.90;;;;;;5111135;28;20475;-75
2022/10/25 09:06:12;;;;;;;8.70;5.00;;;17.00;99.90;;;;;;5111481;28;20442;-75
2022/10/25 09:09:03;;;;;;;6.93;4.20;;;17.60;99.90;;;;;;5110907;28;20948;-76
2022/10/25 09:11:44;;;;;;;9.47;3.87;;;18.00;99.90;;;;;;5110354;28;20621;-75
2022/10/25 09:14:18;;;;;;;14.60;4.50;;;18.20;99.90;;;;;;5111122;28;20433;-75
2022/10/25 09:16:50;;;;;;;6.23;3.30;;;18.50;99.90;;;;;;5111414;28;20418;-75
2022/10/25 09:19:21;;;;;;;6.97;3.00;;;18.70;99.90;;;;;;5110526;28;20445;-75
2022/10/25 09:21:52;;;;;;;4.10;2.00;;;19.10;99.90;;;;;;5110240;28;20453;-73
2022/10/25 09:24:22;;;;;;;4.53;2.13;;;18.90;99.90;;;;;;5109553;28;20448;-75
2022/10/25 09:26:55;;;;;;;4.90;1.77;;;19.00;99.90;;;;;;5110706;28;20490;-76
2022/10/25 09:29:28;;;;;;;5.33;1.50;;;19.00;99.90;;;;;;5109614;28;20446;-74
2022/10/25 09:31:58;;;;;;;2.87;1.40;;;18.90;99.90;;;;;;5109531;28;20486;-77
2022/10/25 09:34:31;;;;;;;5.40;2.30;;;18.90;99.90;;;;;;5110148;28;20450;-76
2022/10/25 09:37:06;;;;;;;5.47;1.77;;;18.90;99.90;;;;;;5110772;28;20462;-76
2022/10/25 09:39:38;;;;;;;2.90;1.50;;;19.20;99.90;;;;;;5107741;28;20951;-75
2022/10/25 09:42:06;;;;;;;4.33;2.13;;;19.40;99.90;;;;;;5109912;28;20467;-74
2022/10/25 09:44:38;;;;;;;5.07;1.60;;;19.50;99.90;;;;;;5110307;28;20471;-74
2022/10/25 09:47:18;;;;;;;3.43;1.53;;;19.70;99.90;;;;;;5110074;28;20454;-75
2022/10/25 09:49:51;;;;;;;3.50;1.60;;;19.60;99.90;;;;;;5110455;28;20459;-74
2022/10/25 09:52:26;;;;;;;5.67;1.80;;;19.40;99.90;;;;;;5109128;28;20490;-74
2022/10/25 09:54:58;;;;;;;3.70;1.30;;;18.90;99.90;;;;;;5110395;28;20524;-74
2022/10/25 09:57:25;;;;;;;4.43;1.60;;;18.70;99.90;;;;;;5109262;28;20474;-74
2022/10/25 09:59:52;;;;;;;6.10;1.63;;;18.50;99.90;;;;;;5110591;28;20837;-74
2022/10/25 10:02:23;;;;;;;3.10;1.50;;;18.30;99.90;;;;;;5109223;28;20480;-74
2022/10/25 10:04:50;;;;;;;7.63;1.50;;;18.30;99.90;;;;;;5109757;28;20466;-75
2022/10/25 10:07:22;;;;;;;4.77;1.77;;;18.40;99.90;;;;;;5110215;28;20446;-75
2022/10/25 10:09:51;;;;;;;7.43;1.90;;;18.70;99.90;;;;;;5108882;28;20462;-74
2022/10/25 10:12:22;;;;;;;8.67;2.00;;;18.50;99.90;;;;;;5109808;28;20467;-73
2022/10/25 10:14:55;;;;;;;6.90;1.87;;;18.30;99.90;;;;;;5110071;28;21651;-74
2022/10/25 10:17:24;;;;;;;4.10;1.30;;;18.40;99.90;;;;;;5109488;28;20850;-74
2022/10/25 10:20:10;;;;;;;7.60;2.03;;;18.20;99.90;;;;;;5109762;28;20474;-74
2022/10/25 10:22:45;;;;;;;9.40;1.60;;;18.20;99.90;;;;;;5109064;28;20470;-74
2022/10/25 10:25:17;;;;;;;5.03;1.60;;;18.30;99.90;;;;;;5109436;28;20449;-73
2022/10/25 10:27:46;;;;;;;5.63;1.83;;;18.50;99.90;;;;;;5109422;28;20515;-74
2022/10/25 10:30:21;;;;;;;2.57;1.50;;;18.60;99.90;;;;;;5109362;28;20446;-73
2022/10/25 10:32:54;;;;;;;2.63;1.40;;;18.90;99.90;;;;;;5108094;28;20490;-73
2022/10/25 10:35:28;;;;;;;4.30;1.40;;;19.20;99.90;;;;;;5107912;28;20447;-74
2022/10/25 10:38:23;;;;;;;7.83;1.50;;;19.20;99.90;;;;;;5107664;28;20481;-74
2022/10/25 10:40:51;;;;;;;4.80;1.60;;;19.30;99.90;;;;;;5108250;28;20447;-74
2022/10/25 10:43:23;;;;;;;2.70;1.40;;;19.50;99.90;;;;;;5108819;28;20497;-73
2022/10/25 10:45:52;;;;;;;3.80;1.53;;;19.70;99.90;;;;;;5108540;28;20488;-74
2022/10/25 10:48:20;;;;;;;4.47;1.90;;;19.70;99.90;;;;;;5107795;28;21690;-73
2022/10/25 10:50:49;;;;;;;3.00;1.20;;;19.70;99.90;;;;;;5106185;28;20821;-74
2022/10/25 10:53:21;;;;;;;3.30;1.43;;;20.00;99.90;;;;;;5108536;28;20486;-73
2022/10/25 10:55:50;;;;;;;3.47;1.47;;;20.00;99.90;;;;;;5108209;28;20447;-74
2022/10/25 10:58:20;;;;;;;4.30;1.40;;;20.20;99.90;;;;;;5108738;28;20523;-73
2022/10/25 11:00:51;;;;;;;2.83;1.57;;;20.20;99.90;;;;;;5107864;28;21009;-74
2022/10/25 11:03:47;;;;;;;5.70;1.50;;;20.30;99.90;;;;;;5108500;28;20470;-76
2022/10/25 11:06:18;;;;;;;3.77;1.10;;;20.30;99.90;;;;;;5108504;28;20447;-76
2022/10/25 11:08:47;;;;;;;3.33;1.67;;;20.00;99.90;;;;;;5107370;28;20928;-76
2022/10/25 11:11:18;;;;;;;2.23;1.33;;;19.40;99.90;;;;;;5107991;28;20533;-76
2022/10/25 11:13:52;;;;;;;4.23;1.77;;;18.90;99.90;;;;;;5107514;28;20982;-73
2022/10/25 11:16:56;;;;;;;6.10;1.60;;;18.60;99.90;;;;;;5108306;28;20458;-74
2022/10/25 11:19:45;;;;;;;8.80;1.60;;;18.30;99.90;;;;;;5108385;28;20474;-75
2022/10/25 11:22:24;;;;;;;4.23;1.50;;;18.10;99.90;;;;;;5104362;28;20486;-74
2022/10/25 11:25:06;;;;;;;5.23;1.53;;;17.90;99.90;;;;;;5108579;28;20455;-75
2022/10/25 11:27:44;;;;;;;6.33;1.37;;;17.80;99.90;;;;;;5107942;28;20444;-75
2022/10/25 11:30:13;;;;;;;4.87;1.50;;;18.00;99.90;;;;;;5107225;28;20440;-75
2022/10/25 11:33:18;;;;;;;7.50;1.47;;;18.20;99.90;;;;;;5107082;28;20502;-75
2022/10/25 11:36:29;;;;;;;3.07;1.60;;;18.20;99.90;;;;;;5108112;28;20420;-74
2022/10/25 11:39:06;;;;;;;2.70;1.40;;;18.20;99.90;;;;;;5087396;28;20479;-74
2022/10/25 11:41:44;;;;;;;6.77;1.60;;;18.10;99.90;;;;;;5106511;28;20433;-74
2022/10/25 11:44:34;;;;;;;3.38;1.00;;;18.10;99.90;;;;;;5106535;28;20998;-74
2022/10/25 11:47:12;;;;;;;6.60;2.23;;;18.10;99.90;;;;;;5107315;27;20196;-74
2022/10/25 11:49:48;;;;;;;2.80;1.30;;;18.20;99.90;;;;;;5106405;28;20459;-74
2022/10/25 11:52:45;;;;;;;1.87;1.30;;;18.20;99.90;;;;;;5106813;28;20462;-74
2022/10/25 11:55:25;;;;;;;4.27;1.43;;;18.20;99.90;;;;;;5106351;28;20926;-73
2022/10/25 11:58:02;;;;;;;2.80;1.43;;;18.20;99.90;;;;;;5106571;28;20442;-74
2022/10/25 12:00:41;;;;;;;2.93;1.10;;;18.40;99.90;;;;;;5107869;28;20503;-73
2022/10/25 12:03:20;;;;;;;3.43;1.60;;;18.70;99.90;;;;;;5106369;28;20463;-74
2022/10/25 12:05:52;;;;;;;4.97;1.47;;;18.80;99.90;;;;;;5107713;28;20481;-74
2022/10/25 12:08:30;;;;;;;4.73;1.53;;;19.10;99.90;;;;;;5106740;28;20972;-74
2022/10/25 12:11:04;;;;;;;7.63;1.40;;;19.10;99.90;;;;;;5105448;28;20541;-74
2022/10/25 12:13:35;;;;;;;6.40;1.33;;;19.20;99.90;;;;;;5107729;28;20462;-74
2022/10/25 12:16:06;;;;;;;4.07;1.53;;;19.10;99.90;;;;;;5106988;28;20450;-74
2022/10/25 12:18:36;;;;;;;5.80;1.57;;;18.90;99.90;;;;;;5107535;28;20956;-74
2022/10/25 12:21:04;;;;;;;2.77;1.17;;;18.70;99.90;;;;;;5106971;28;20845;-74
2022/10/25 12:23:39;;;;;;;6.50;1.90;;;18.50;99.90;;;;;;5106035;28;20498;-76
2022/10/25 12:26:10;;;;;;;5.10;1.50;;;18.30;99.90;;;;;;5107832;28;20450;-75
2022/10/25 12:28:45;;;;;;;1.93;1.40;;;18.30;99.90;;;;;;5106999;28;20599;-74
2022/10/25 12:31:16;;;;;;;5.93;1.67;;;18.40;99.90;;;;;;5106498;28;20469;-77
2022/10/25 12:33:48;;;;;;;2.50;1.53;;;18.50;99.90;;;;;;5107571;28;20466;-75
2022/10/25 12:36:24;;;;;;;14.10;10.57;;;18.80;99.90;;;;;;5106864;28;20455;-77
2022/10/25 12:38:51;;;;;;;3.33;2.13;;;18.90;99.90;;;;;;5107100;28;20485;-77
2022/10/25 12:41:21;;;;;;;16.37;7.27;;;19.00;99.90;;;;;;5107088;28;20425;-76
2022/10/25 12:43:59;;;;;;;22.53;16.73;;;19.00;99.90;;;;;;5106583;28;20454;-76
2022/10/25 12:46:53;;;;;;;127.50;97.40;;;19.20;99.90;;;;;;5105199;28;20485;-76
2022/10/25 12:49:44;;;;;;;14.70;11.40;;;19.50;99.90;;;;;;5104429;28;20439;-75
2022/10/25 12:52:28;;;;;;;4.30;3.27;;;19.80;99.90;;;;;;5106549;28;20991;-76
2022/10/25 12:55:33;;;;;;;8.33;6.33;;;20.10;99.90;;;;;;5107084;28;20458;-76
2022/10/25 12:58:13;;;;;;;21.00;16.83;;;20.00;99.90;;;;;;5100637;28;20450;-76
2022/10/25 13:00:46;;;;;;;55.13;27.67;;;19.90;99.90;;;;;;5109382;28;20486;-77
2022/10/25 13:03:38;;;;;;;18.83;10.80;;;19.70;99.90;;;;;;5110350;28;20477;-76